Time;durP1;ratioP1;P1;durP2;ratioP2;P2;SDS_P1;SDS_P2;PMS_P1;PMS_P2;Temp;Humidity;BMP_temperature;BMP_pressure;BME280_temperature;BME280_humidity;BME280_pressure;Samples;Min_cycle;Max_cycle;Signal;HPM_P1;HPM_P2
2023/10/17 00:00:13;;;;;;;4.67;4.20;;;9.50;66.20;7.90;96543.00;;;;4990595;28;20195;-87
2023/10/17 00:02:41;;;;;;;5.40;4.90;;;9.50;66.20;7.90;96537.00;;;;4991277;28;20218;-87
2023/10/17 00:05:09;;;;;;;4.53;4.13;;;9.50;66.30;8.00;96542.00;;;;4973935;28;20195;-88
2023/10/17 00:07:37;;;;;;;4.77;4.30;;;9.50;66.40;8.00;96541.00;;;;4992998;28;20296;-88
2023/10/17 00:10:14;;;;;;;5.20;4.80;;;9.50;66.40;8.00;96539.00;;;;4991176;28;20641;-87
2023/10/17 00:12:44;;;;;;;4.93;4.53;;;9.60;66.70;8.10;96537.00;;;;4976352;28;20226;-88
2023/10/17 00:15:27;;;;;;;5.40;4.90;;;9.60;66.70;8.10;96544.00;;;;4992525;28;20209;-87
2023/10/17 00:18:00;;;;;;;5.60;4.87;;;9.60;66.80;8.10;96545.00;;;;4989724;28;20266;-87
2023/10/17 00:20:37;;;;;;;5.53;4.60;;;9.60;66.80;8.10;96554.00;;;;4991577;28;20203;-87
2023/10/17 00:23:06;;;;;;;5.03;4.63;;;9.70;66.90;8.20;96562.00;;;;4992923;28;20214;-87
2023/10/17 00:25:36;;;;;;;5.00;4.60;;;9.70;66.90;8.20;96555.00;;;;4995111;28;20565;-88
2023/10/17 00:28:04;;;;;;;4.87;4.40;;;9.70;66.90;8.20;96547.00;;;;4996378;28;20215;-87
2023/10/17 00:30:31;;;;;;;5.13;4.70;;;9.70;66.90;8.20;96541.00;;;;4995703;28;20290;-87
2023/10/17 00:32:58;;;;;;;4.90;4.50;;;9.70;66.80;8.20;96537.00;;;;4998232;28;20232;-88
2023/10/17 00:35:27;;;;;;;5.13;4.27;;;9.70;66.90;8.30;96540.00;;;;4999005;28;20205;-88
2023/10/17 00:37:57;;;;;;;4.60;4.13;;;9.70;66.90;8.30;96530.00;;;;4999701;28;20249;-87
2023/10/17 00:40:34;;;;;;;6.57;5.07;;;9.80;67.00;8.30;96538.00;;;;5010208;28;20203;-87
2023/10/17 00:43:05;;;;;;;4.90;4.50;;;9.80;66.90;8.40;96534.00;;;;5008961;28;20301;-87
2023/10/17 00:45:33;;;;;;;4.70;4.30;;;9.80;66.80;8.40;96534.00;;;;5002857;28;20279;-87
2023/10/17 00:48:05;;;;;;;5.50;4.40;;;9.90;66.80;8.40;96536.00;;;;4994537;28;20229;-88
2023/10/17 00:50:33;;;;;;;4.87;4.40;;;9.90;66.80;8.40;96536.00;;;;4994887;28;20250;-87
2023/10/17 00:53:01;;;;;;;5.27;4.77;;;9.90;66.70;8.40;96532.00;;;;4994062;28;20236;-88
2023/10/17 00:55:28;;;;;;;4.83;4.43;;;9.90;66.70;8.40;96534.00;;;;4993127;28;20259;-88
2023/10/17 00:57:57;;;;;;;4.73;4.33;;;9.90;66.70;8.40;96529.00;;;;4994956;28;20574;-87
2023/10/17 01:00:35;;;;;;;4.73;4.17;;;10.00;66.80;8.40;96534.00;;;;4996095;28;20205;-88
2023/10/17 01:03:08;;;;;;;4.80;4.33;;;9.90;66.80;8.40;96533.00;;;;4994485;28;20317;-87
2023/10/17 01:05:57;;;;;;;4.73;4.33;;;9.90;66.80;8.40;96536.00;;;;4994465;28;20293;-88
2023/10/17 01:08:39;;;;;;;4.57;4.17;;;10.00;66.90;8.40;96525.00;;;;4992253;28;20214;-88
2023/10/17 01:11:16;;;;;;;4.60;4.20;;;9.90;66.70;8.40;96525.00;;;;4993577;28;20194;-88
2023/10/17 01:13:47;;;;;;;4.90;4.50;;;10.00;66.70;8.50;96528.00;;;;4996569;28;20222;-87
2023/10/17 01:16:16;;;;;;;5.17;4.67;;;10.00;66.60;8.50;96522.00;;;;4993932;28;20697;-88
2023/10/17 01:19:00;;;;;;;5.00;4.60;;;10.00;66.70;8.50;96520.00;;;;4994053;28;20671;-87
2023/10/17 01:21:28;;;;;;;4.60;4.20;;;10.00;66.50;8.50;96531.00;;;;4994219;28;20207;-87
2023/10/17 01:23:55;;;;;;;4.57;4.17;;;10.00;66.50;8.50;96527.00;;;;4994716;28;20641;-88
2023/10/17 01:26:24;;;;;;;5.03;4.30;;;10.00;66.40;8.50;96520.00;;;;4994049;28;20198;-88
2023/10/17 01:28:54;;;;;;;5.67;5.17;;;10.00;66.50;8.40;96518.00;;;;4995396;28;20257;-88
2023/10/17 01:31:24;;;;;;;4.97;4.40;;;10.00;66.50;8.40;96507.00;;;;4994511;28;20277;-87
2023/10/17 01:33:54;;;;;;;4.03;3.73;;;10.00;66.50;8.40;96506.00;;;;4994803;28;20219;-88
2023/10/17 01:36:22;;;;;;;4.07;3.77;;;10.00;66.40;8.40;96505.00;;;;4994907;28;20226;-87
2023/10/17 01:38:50;;;;;;;4.77;4.30;;;10.00;66.40;8.40;96505.00;;;;4994293;28;20213;-88
2023/10/17 01:41:19;;;;;;;4.47;4.07;;;9.90;66.40;8.40;96510.00;;;;4992570;28;20202;-88
2023/10/17 01:43:48;;;;;;;4.73;4.30;;;10.00;66.40;8.40;96499.00;;;;4993072;28;20230;-88
2023/10/17 01:46:21;;;;;;;4.70;3.93;;;10.00;66.30;8.40;96504.00;;;;4993111;28;20230;-87
2023/10/17 01:48:54;;;;;;;4.13;3.83;;;9.90;66.20;8.40;96489.00;;;;4994732;28;20770;-87
2023/10/17 01:51:23;;;;;;;4.17;3.80;;;9.80;66.20;8.40;96494.00;;;;4993504;28;20210;-87
2023/10/17 01:53:51;;;;;;;4.30;3.90;;;9.90;66.10;8.40;96493.00;;;;4991524;28;20233;-87
2023/10/17 01:56:21;;;;;;;4.60;4.20;;;9.90;66.80;8.30;96498.00;;;;4994479;28;20202;-88
2023/10/17 01:58:50;;;;;;;5.03;4.50;;;9.90;66.10;8.30;96501.00;;;;5010939;23;20187;-84
2023/10/17 02:01:24;;;;;;;4.10;3.70;;;9.90;66.20;8.30;96498.00;;;;5009186;28;20228;-84
2023/10/17 02:03:52;;;;;;;4.20;3.80;;;9.90;66.10;8.30;96487.00;;;;4992570;28;20273;-83
2023/10/17 02:06:22;;;;;;;4.33;4.03;;;9.90;66.10;8.30;96498.00;;;;4992940;28;20203;-84
2023/10/17 02:08:50;;;;;;;4.10;3.77;;;9.90;66.00;8.30;96500.00;;;;4991313;28;20696;-84
2023/10/17 02:11:24;;;;;;;4.43;4.13;;;9.80;65.90;8.30;96496.00;;;;4994443;28;20290;-84
2023/10/17 02:13:56;;;;;;;4.03;3.60;;;9.70;65.70;8.20;96497.00;;;;4992841;28;20550;-83
2023/10/17 02:16:24;;;;;;;4.27;3.97;;;9.80;65.70;8.20;96496.00;;;;4992511;28;20710;-84
2023/10/17 02:18:51;;;;;;;4.00;3.70;;;9.80;65.50;8.20;96497.00;;;;4992610;28;20226;-84
2023/10/17 02:21:20;;;;;;;3.83;3.53;;;9.80;65.80;8.10;96491.00;;;;4993870;28;20230;-83
2023/10/17 02:23:51;;;;;;;3.73;3.43;;;9.70;65.30;8.10;96494.00;;;;4989827;28;20690;-84
2023/10/17 02:26:22;;;;;;;3.97;3.60;;;9.70;65.30;8.00;96487.00;;;;4993579;28;20281;-83
2023/10/17 02:28:53;;;;;;;3.67;3.37;;;9.70;65.30;8.00;96483.00;;;;4982516;28;20238;-83
2023/10/17 02:31:29;;;;;;;3.70;3.40;;;9.70;65.40;8.00;96484.00;;;;4991304;28;20284;-84
2023/10/17 02:33:57;;;;;;;4.10;3.73;;;9.60;65.40;8.00;96478.00;;;;4991254;28;20584;-83
2023/10/17 02:36:26;;;;;;;3.73;3.43;;;9.60;65.30;7.90;96478.00;;;;4989821;28;20205;-84
2023/10/17 02:38:53;;;;;;;4.30;3.90;;;10.10;65.60;7.90;96476.00;;;;4991905;28;20314;-84
2023/10/17 02:41:22;;;;;;;4.00;3.70;;;9.50;65.30;7.90;96469.00;;;;4990101;28;20234;-84
2023/10/17 02:43:53;;;;;;;4.20;3.50;;;9.50;65.40;7.90;96473.00;;;;4989415;28;20202;-83
2023/10/17 02:46:26;;;;;;;3.63;3.33;;;9.50;65.30;7.80;96476.00;;;;4990821;28;20206;-83
2023/10/17 02:48:54;;;;;;;3.87;3.57;;;9.50;65.30;7.80;96471.00;;;;4989643;28;20226;-83
2023/10/17 02:51:33;;;;;;;3.53;3.27;;;9.50;65.30;7.80;96476.00;;;;4992387;28;20206;-83
2023/10/17 02:54:09;;;;;;;3.97;3.17;;;9.40;65.30;7.80;96475.00;;;;4992156;28;20643;-83
2023/10/17 02:56:37;;;;;;;3.60;3.30;;;9.40;65.30;7.80;96485.00;;;;4991156;28;20706;-84
2023/10/17 02:59:06;;;;;;;4.10;3.80;;;9.40;65.20;7.70;96480.00;;;;4993066;28;20309;-83
2023/10/17 03:01:38;;;;;;;4.13;3.83;;;9.40;65.30;7.70;96478.00;;;;4992886;28;20668;-83
2023/10/17 03:04:09;;;;;;;3.00;2.80;;;9.40;65.40;7.70;96478.00;;;;4993077;28;20451;-83
2023/10/17 03:06:40;;;;;;;4.60;4.20;;;9.30;65.30;7.70;96467.00;;;;4992622;28;20199;-83
2023/10/17 03:09:32;;;;;;;4.03;3.73;;;9.30;65.40;7.70;96462.00;;;;4990572;28;20237;-83
2023/10/17 03:12:07;;;;;;;3.73;3.37;;;9.30;65.30;7.60;96465.00;;;;4985800;28;20212;-83
2023/10/17 03:14:49;;;;;;;3.67;3.37;;;9.30;65.20;7.60;96472.00;;;;4975602;28;20659;-83
2023/10/17 03:17:17;;;;;;;4.30;3.90;;;9.30;65.60;7.60;96472.00;;;;5001349;28;20289;-83
2023/10/17 03:19:44;;;;;;;5.23;3.80;;;9.30;65.20;7.60;96474.00;;;;4995163;28;20219;-83
2023/10/17 03:22:16;;;;;;;3.57;3.37;;;9.20;65.20;7.60;96474.00;;;;4995309;28;20199;-84
2023/10/17 03:24:44;;;;;;;3.43;3.13;;;9.70;65.60;7.50;96495.00;;;;4990061;28;20203;-83
2023/10/17 03:27:23;;;;;;;4.03;3.70;;;9.20;65.40;7.50;96496.00;;;;4996004;28;20313;-83
2023/10/17 03:29:49;;;;;;;3.73;3.43;;;9.20;65.60;7.50;96506.00;;;;4989619;28;20218;-83
2023/10/17 03:32:22;;;;;;;3.87;3.57;;;9.20;65.60;7.50;96501.00;;;;4997302;28;20206;-83
2023/10/17 03:34:56;;;;;;;3.77;3.47;;;9.10;65.60;7.50;96497.00;;;;4997843;28;20202;-83
2023/10/17 03:37:38;;;;;;;3.93;3.60;;;9.10;65.50;7.50;96490.00;;;;5008488;28;20749;-83
2023/10/17 03:40:15;;;;;;;4.37;3.97;;;9.10;65.40;7.40;96483.00;;;;5002630;28;20221;-83
2023/10/17 03:42:44;;;;;;;3.83;3.53;;;9.10;65.30;7.40;96489.00;;;;5004975;28;20208;-83
2023/10/17 03:45:16;;;;;;;3.70;3.40;;;9.00;65.10;7.40;96496.00;;;;5001517;28;20202;-83
2023/10/17 03:47:53;;;;;;;4.10;3.73;;;9.00;65.00;7.30;96480.00;;;;5003595;28;20229;-83
2023/10/17 03:50:34;;;;;;;4.00;3.60;;;9.00;65.00;7.30;96487.00;;;;4999935;28;20606;-83
2023/10/17 03:53:07;;;;;;;5.47;3.63;;;9.00;64.90;7.20;96488.00;;;;5002176;28;20226;-83
2023/10/17 03:55:36;;;;;;;3.30;3.10;;;9.10;65.00;7.20;96486.00;;;;5002799;28;20205;-83
2023/10/17 03:58:12;;;;;;;4.10;3.70;;;9.00;64.90;7.20;96491.00;;;;5003011;28;20232;-83
2023/10/17 04:00:44;;;;;;;3.93;3.53;;;8.90;64.80;7.10;96493.00;;;;4998564;28;20664;-83
2023/10/17 04:03:21;;;;;;;3.57;3.27;;;8.90;64.80;7.10;96486.00;;;;5000146;28;20257;-84
2023/10/17 04:05:51;;;;;;;3.50;3.20;;;8.80;64.70;7.10;96487.00;;;;4999150;28;20194;-83
2023/10/17 04:08:26;;;;;;;3.30;3.00;;;8.80;64.70;7.00;96478.00;;;;4996337;28;20625;-83
2023/10/17 04:11:08;;;;;;;3.60;3.30;;;9.30;65.20;7.00;96473.00;;;;4991336;28;20203;-83
2023/10/17 04:13:37;;;;;;;3.60;2.87;;;8.70;64.80;7.00;96464.00;;;;5008682;28;20206;-84
2023/10/17 04:16:09;;;;;;;3.20;2.87;;;8.70;64.80;6.90;96473.00;;;;5000337;28;20209;-83
2023/10/17 04:18:38;;;;;;;3.00;2.77;;;8.70;64.80;6.90;96478.00;;;;5007015;28;20210;-84
2023/10/17 04:21:17;;;;;;;3.50;3.20;;;8.60;64.90;6.90;96484.00;;;;5000721;28;20199;-84
2023/10/17 04:23:49;;;;;;;4.03;3.53;;;8.60;64.90;6.80;96488.00;;;;4990593;28;20213;-84
2023/10/17 04:26:19;;;;;;;3.70;3.40;;;8.60;64.90;6.80;96480.00;;;;5009746;28;20198;-84
2023/10/17 04:28:49;;;;;;;3.90;3.60;;;7.60;64.30;6.80;96483.00;;;;5005764;28;20233;-84
2023/10/17 04:31:25;;;;;;;3.67;3.37;;;8.50;64.80;6.70;96474.00;;;;5007127;28;20734;-84
2023/10/17 04:34:05;;;;;;;3.03;2.83;;;8.50;64.70;6.70;96458.00;;;;4986767;28;20232;-84
2023/10/17 04:36:37;;;;;;;3.40;3.10;;;8.60;64.80;6.70;96467.00;;;;4996765;28;20203;-84
2023/10/17 04:39:18;;;;;;;3.50;3.20;;;8.30;64.60;6.60;96474.00;;;;5000168;28;20222;-84
2023/10/17 04:44:34;;;;;;;3.60;3.30;;;8.40;64.50;6.50;96464.00;;;;5001669;28;20217;-84
2023/10/17 04:47:25;;;;;;;3.40;3.20;;;8.30;64.50;6.50;96467.00;;;;5008742;28;20206;-84
2023/10/17 04:49:54;;;;;;;3.60;3.30;;;8.30;64.50;6.40;96474.00;;;;4994347;28;20737;-84
2023/10/17 04:52:28;;;;;;;3.13;2.93;;;8.30;64.50;6.40;96468.00;;;;5004291;28;20201;-84
2023/10/17 04:55:01;;;;;;;3.63;3.33;;;8.20;64.50;6.40;96475.00;;;;5000801;28;20286;-83
2023/10/17 05:00:15;;;;;;;3.13;2.83;;;8.10;64.50;6.30;96455.00;;;;4986360;28;20230;-84
2023/10/17 05:02:54;;;;;;;3.47;3.10;;;8.10;64.70;6.30;96453.00;;;;5004508;28;20214;-83
2023/10/17 05:05:45;;;;;;;2.87;2.63;;;8.10;64.70;6.30;96457.00;;;;5002885;28;20194;-83
2023/10/17 05:08:17;;;;;;;3.27;2.80;;;8.10;64.70;6.20;96458.00;;;;4996405;28;20233;-83
2023/10/17 06:16:59;;;;;;;2.70;2.50;;;8.50;67.00;6.90;96506.00;;;;5001394;28;20279;-80
2023/10/17 06:19:27;;;;;;;2.90;2.70;;;8.50;67.10;7.00;96510.00;;;;4993656;28;20629;-79
2023/10/17 06:24:46;;;;;;;2.83;2.63;;;8.70;67.40;7.20;96538.00;;;;4998639;28;20197;-79
2023/10/17 06:33:03;;;;;;;2.50;2.30;;;8.90;67.50;7.40;96543.00;;;;4992690;28;20252;-80
2023/10/17 06:35:31;;;;;;;2.67;2.47;;;9.00;67.60;7.50;96548.00;;;;4999112;28;20205;-79
2023/10/17 06:37:59;;;;;;;2.63;2.43;;;9.00;67.50;7.50;96546.00;;;;5002905;28;20210;-79
2023/10/17 06:40:37;;;;;;;2.50;2.30;;;9.10;67.50;7.60;96546.00;;;;4994519;28;20227;-79
2023/10/17 06:43:13;;;;;;;2.70;2.50;;;9.20;67.60;7.70;96545.00;;;;4991015;28;20324;-79
2023/10/17 06:45:54;;;;;;;3.50;2.50;;;9.20;67.50;7.70;96549.00;;;;4995366;28;20629;-79
2023/10/17 06:48:31;;;;;;;2.53;2.33;;;9.30;68.20;7.80;96545.00;;;;5000129;28;20312;-79
2023/10/17 06:53:52;;;;;;;2.43;2.20;;;9.40;67.60;7.90;96534.00;;;;4991840;28;20210;-79
2023/10/17 06:56:19;;;;;;;2.50;2.30;;;9.50;67.50;8.00;96530.00;;;;5005178;28;20348;-80
2023/10/17 06:59:03;;;;;;;2.63;2.43;;;9.60;67.70;8.10;96535.00;;;;4994168;28;20226;-79
2023/10/17 07:01:33;;;;;;;2.87;2.57;;;9.60;67.70;8.20;96533.00;;;;4991889;28;20206;-79
2023/10/17 07:04:01;;;;;;;2.37;2.17;;;9.70;67.60;8.20;96526.00;;;;4993368;28;20205;-79
2023/10/17 07:06:29;;;;;;;2.70;2.50;;;9.70;67.60;8.30;96520.00;;;;4998655;28;20207;-79
2023/10/17 07:08:56;;;;;;;3.70;2.23;;;9.80;67.60;8.40;96519.00;;;;4996234;28;20222;-79
2023/10/17 07:11:30;;;;;;;2.90;2.70;;;9.90;67.60;8.40;96527.00;;;;4988335;28;20199;-79
2023/10/17 07:16:45;;;;;;;2.97;2.70;;;10.00;67.60;8.60;96519.00;;;;4999651;28;20290;-79
2023/10/17 07:22:04;;;;;;;3.13;2.57;;;10.10;67.30;8.70;96528.00;;;;4974097;28;20195;-79
2023/10/17 07:24:35;;;;;;;3.57;3.03;;;10.20;67.30;8.70;96525.00;;;;4993659;28;20199;-79
2023/10/17 07:27:11;;;;;;;3.20;2.87;;;10.20;67.20;8.80;96527.00;;;;4996884;28;20210;-79
2023/10/17 07:29:45;;;;;;;2.60;2.43;;;10.30;67.20;8.80;96536.00;;;;5001322;28;20261;-79
2023/10/17 07:32:16;;;;;;;2.63;2.43;;;10.30;67.20;8.90;96529.00;;;;4992939;28;20207;-79
2023/10/17 07:34:44;;;;;;;2.53;2.20;;;10.40;67.20;9.00;96522.00;;;;5002879;28;20199;-79
2023/10/17 07:37:22;;;;;;;2.57;2.30;;;10.40;67.20;9.00;96527.00;;;;5001187;28;20206;-79
2023/10/17 07:40:15;;;;;;;2.50;2.10;;;10.50;67.10;9.10;96533.00;;;;5000957;28;20606;-79
2023/10/17 07:42:45;;;;;;;2.67;2.03;;;10.50;67.10;9.10;96533.00;;;;5003578;28;20683;-79
2023/10/17 07:45:21;;;;;;;4.10;2.90;;;10.60;67.00;9.20;96527.00;;;;4989544;28;20198;-79
2023/10/17 07:47:54;;;;;;;2.40;2.20;;;10.70;66.80;9.20;96531.00;;;;5003317;28;20619;-79
2023/10/17 07:50:25;;;;;;;4.43;2.67;;;10.70;66.70;9.30;96539.00;;;;4998094;28;20222;-79
2023/10/17 07:52:59;;;;;;;2.30;2.10;;;10.70;66.30;9.30;96534.00;;;;4998276;28;20206;-79
2023/10/17 07:55:36;;;;;;;1.93;1.83;;;10.80;66.40;9.30;96533.00;;;;4996219;28;20232;-79
2023/10/17 07:58:09;;;;;;;2.43;2.23;;;10.80;66.30;9.40;96533.00;;;;4986459;28;20206;-79
2023/10/17 08:00:38;;;;;;;2.60;2.40;;;10.90;66.30;9.50;96528.00;;;;4996226;28;20288;-79
2023/10/17 08:03:14;;;;;;;2.63;2.43;;;10.90;67.00;9.50;96525.00;;;;5003109;28;20197;-80
2023/10/17 08:05:58;;;;;;;3.90;2.57;;;11.00;66.40;9.60;96531.00;;;;4994982;28;20248;-81
2023/10/17 08:08:32;;;;;;;2.60;2.40;;;11.00;66.40;9.60;96530.00;;;;4990040;28;20234;-79
2023/10/17 08:11:00;;;;;;;2.50;2.30;;;11.10;66.30;9.70;96540.00;;;;4992554;28;20683;-79
2023/10/17 08:13:28;;;;;;;3.43;2.50;;;11.10;67.00;9.70;96534.00;;;;4992704;28;20199;-79
2023/10/17 08:16:06;;;;;;;3.37;2.60;;;11.10;66.30;9.80;96542.00;;;;4999286;28;20194;-79
2023/10/17 08:18:39;;;;;;;2.57;2.37;;;11.20;66.40;9.90;96537.00;;;;4989332;28;20238;-79
2023/10/17 08:23:52;;;;;;;2.40;2.20;;;11.30;66.40;10.00;96539.00;;;;5002643;28;20325;-79
2023/10/17 08:26:20;;;;;;;2.97;2.20;;;11.40;66.30;10.00;96540.00;;;;5002289;28;20785;-79
2023/10/17 08:28:47;;;;;;;2.57;2.13;;;11.40;66.20;10.10;96542.00;;;;4989570;28;20613;-79
2023/10/17 08:31:23;;;;;;;2.07;1.87;;;11.50;66.10;10.20;96554.00;;;;4988697;28;20248;-79
2023/10/17 08:34:09;;;;;;;2.57;2.30;;;11.50;66.10;10.20;96548.00;;;;4991620;28;20202;-79
2023/10/17 08:36:42;;;;;;;2.10;2.00;;;11.60;66.10;10.30;96554.00;;;;4995347;28;20198;-79
2023/10/17 08:41:53;;;;;;;2.53;2.30;;;11.70;65.50;10.40;96548.00;;;;5007381;28;20199;-79
2023/10/17 08:44:22;;;;;;;2.53;2.20;;;11.80;65.50;10.50;96554.00;;;;5002110;28;20226;-79
2023/10/17 08:46:53;;;;;;;2.20;2.00;;;11.80;65.40;10.50;96560.00;;;;4998238;28;20199;-80
2023/10/17 08:49:21;;;;;;;2.13;2.03;;;11.80;65.10;10.50;96560.00;;;;5004503;28;20238;-79
2023/10/17 08:51:49;;;;;;;2.10;2.00;;;11.90;65.00;10.60;96561.00;;;;5004748;28;20206;-80
2023/10/17 08:54:18;;;;;;;2.30;2.17;;;11.90;65.20;10.60;96555.00;;;;4997070;28;20205;-79
2023/10/17 08:56:47;;;;;;;3.00;2.50;;;12.00;65.30;10.70;96550.00;;;;4998468;28;20285;-79
2023/10/17 08:59:15;;;;;;;2.37;2.17;;;12.00;65.30;10.80;96548.00;;;;5000638;28;20234;-79
2023/10/17 09:02:02;;;;;;;2.40;2.20;;;12.10;65.20;10.80;96545.00;;;;5005066;28;20703;-80
2023/10/17 09:04:33;;;;;;;2.47;2.27;;;12.30;65.20;10.90;96545.00;;;;4990108;28;20198;-79
2023/10/17 09:07:05;;;;;;;2.20;2.00;;;12.20;65.20;10.90;96541.00;;;;5002948;28;20203;-79
2023/10/17 09:09:33;;;;;;;2.60;2.40;;;12.30;65.20;11.00;96544.00;;;;5002557;28;20253;-79
2023/10/17 09:12:01;;;;;;;1.80;1.70;;;12.30;64.80;11.10;96535.00;;;;5007879;28;20578;-80
2023/10/17 09:14:36;;;;;;;2.30;2.10;;;12.40;64.50;11.20;96541.00;;;;5000461;28;20306;-79
2023/10/17 09:17:16;;;;;;;2.23;2.10;;;12.40;64.50;11.20;96533.00;;;;4993888;28;20715;-79
2023/10/17 09:19:50;;;;;;;3.63;2.33;;;12.50;64.60;11.30;96541.00;;;;4998474;28;20734;-79
2023/10/17 09:22:36;;;;;;;4.30;2.60;;;12.50;64.70;11.30;96534.00;;;;5004068;28;20205;-79
2023/10/17 09:25:18;;;;;;;2.40;2.20;;;12.60;64.70;11.30;96526.00;;;;4998097;28;20202;-79
2023/10/17 09:27:51;;;;;;;2.90;2.40;;;12.70;64.50;11.40;96529.00;;;;5004734;28;20257;-79
2023/10/17 09:30:19;;;;;;;2.30;2.10;;;12.70;64.50;11.50;96522.00;;;;4999118;28;20679;-79
2023/10/17 09:32:48;;;;;;;3.07;2.37;;;12.80;64.60;11.50;96523.00;;;;5000364;28;20660;-79
2023/10/17 09:35:18;;;;;;;2.00;1.80;;;12.80;64.40;11.60;96517.00;;;;4999357;28;20203;-79
2023/10/17 09:37:50;;;;;;;2.53;2.07;;;12.90;64.40;11.70;96520.00;;;;4989423;28;20695;-79
2023/10/17 09:40:25;;;;;;;2.43;2.17;;;12.90;64.20;11.70;96514.00;;;;4996497;28;20776;-80
2023/10/17 09:42:53;;;;;;;3.00;2.00;;;13.00;64.30;11.80;96514.00;;;;4997990;28;20574;-79
2023/10/17 09:45:21;;;;;;;2.67;1.93;;;13.10;64.40;11.80;96522.00;;;;5000060;28;20203;-79
2023/10/17 09:47:58;;;;;;;2.50;2.30;;;13.10;64.50;11.90;96506.00;;;;4993540;28;20206;-79
2023/10/17 09:50:28;;;;;;;2.40;2.20;;;13.20;64.30;12.00;96515.00;;;;4992152;28;20245;-79
2023/10/17 09:52:57;;;;;;;4.40;2.17;;;13.20;64.20;12.10;96509.00;;;;5000923;28;20203;-79
2023/10/17 09:55:25;;;;;;;3.27;2.10;;;13.30;64.10;12.20;96509.00;;;;5002478;28;20198;-80
2023/10/17 09:58:02;;;;;;;2.63;1.90;;;13.40;64.30;12.30;96516.00;;;;5003095;28;20199;-79
2023/10/17 10:00:41;;;;;;;2.47;1.80;;;13.50;64.30;12.30;96515.00;;;;4993857;28;20235;-80
2023/10/17 10:03:12;;;;;;;3.07;2.20;;;13.50;64.20;12.40;96506.00;;;;5000634;28;20194;-79
2023/10/17 10:05:40;;;;;;;1.70;1.60;;;13.60;63.90;12.50;96517.00;;;;4995698;28;20585;-79
2023/10/17 10:08:32;;;;;;;2.07;1.87;;;13.70;63.70;12.60;96513.00;;;;4993482;28;20204;-79
2023/10/17 10:11:00;;;;;;;2.90;1.80;;;13.70;63.80;12.60;96517.00;;;;4998744;28;20778;-79
2023/10/17 10:13:28;;;;;;;2.10;2.00;;;13.80;63.80;12.70;96509.00;;;;4998605;28;20203;-79
2023/10/17 10:16:01;;;;;;;2.00;1.80;;;13.90;63.70;12.80;96509.00;;;;4994106;28;20594;-79
2023/10/17 10:19:03;;;;;;;3.03;2.00;;;13.90;63.40;12.80;96516.00;;;;4993955;28;20215;-80
2023/10/17 10:21:55;;;;;;;1.90;1.80;;;14.00;63.10;12.90;96516.00;;;;4990495;28;20214;-79
2023/10/17 10:24:33;;;;;;;1.73;1.63;;;14.10;63.20;13.00;96512.00;;;;5007460;28;20198;-79
2023/10/17 10:27:24;;;;;;;1.60;1.47;;;14.20;63.10;13.10;96507.00;;;;4992428;28;20682;-80
2023/10/17 10:29:53;;;;;;;2.00;1.90;;;14.20;63.00;13.20;96499.00;;;;5000991;28;20226;-79
2023/10/17 10:32:35;;;;;;;2.60;1.83;;;14.30;63.20;13.20;96490.00;;;;5008161;28;20212;-79
2023/10/17 10:35:06;;;;;;;2.40;2.20;;;14.40;63.60;13.30;96497.00;;;;4998654;28;20624;-79
2023/10/17 10:37:48;;;;;;;2.20;1.83;;;14.40;62.70;13.30;96494.00;;;;4998812;28;20210;-79
2023/10/17 10:40:30;;;;;;;2.40;2.20;;;14.50;62.60;13.40;96497.00;;;;4999779;28;20222;-79
2023/10/17 10:43:01;;;;;;;1.77;1.67;;;14.60;62.30;13.50;96504.00;;;;4994131;28;20198;-79
2023/10/17 10:45:35;;;;;;;2.10;2.00;;;14.60;62.20;13.50;96506.00;;;;4998771;28;20590;-79
2023/10/17 10:48:07;;;;;;;1.97;1.87;;;14.70;61.70;13.60;96500.00;;;;4996140;28;20213;-79
2023/10/17 10:50:36;;;;;;;1.83;1.73;;;14.70;61.70;13.60;96490.00;;;;5005803;28;20222;-79
2023/10/17 10:53:22;;;;;;;3.40;2.23;;;14.80;61.70;13.60;96492.00;;;;4994157;28;20245;-79
2023/10/17 10:56:09;;;;;;;2.00;1.90;;;14.80;61.50;13.70;96484.00;;;;4999143;28;20209;-79
2023/10/17 10:58:47;;;;;;;2.40;2.20;;;14.80;61.30;13.70;96475.00;;;;4993995;28;20217;-79
2023/10/17 11:01:18;;;;;;;2.00;1.90;;;14.90;61.40;13.80;96477.00;;;;4990915;28;20213;-79
2023/10/17 11:03:47;;;;;;;2.30;1.93;;;14.90;61.70;13.80;96478.00;;;;4995508;28;20198;-79
2023/10/17 11:06:23;;;;;;;2.20;2.00;;;15.00;61.70;13.90;96477.00;;;;5005996;28;20270;-79
2023/10/17 11:08:51;;;;;;;2.10;2.00;;;15.00;61.40;13.90;96472.00;;;;5016574;28;20237;-79
2023/10/17 11:11:20;;;;;;;2.33;2.00;;;15.00;61.40;13.90;96468.00;;;;5017169;28;20275;-79
2023/10/17 11:13:49;;;;;;;2.30;2.10;;;15.10;62.00;13.90;96470.00;;;;5007351;28;20207;-79
2023/10/17 11:16:19;;;;;;;2.33;2.13;;;15.10;61.10;14.00;96465.00;;;;5005822;28;20281;-79
2023/10/17 11:18:47;;;;;;;2.20;1.90;;;15.10;60.80;14.00;96458.00;;;;5000217;28;20345;-79
2023/10/17 11:21:20;;;;;;;2.13;2.03;;;15.10;60.70;14.00;96464.00;;;;4990309;28;20205;-79
2023/10/17 11:23:53;;;;;;;3.67;2.23;;;15.20;60.40;14.00;96463.00;;;;4995367;28;20202;-79
2023/10/17 11:26:29;;;;;;;3.23;2.03;;;15.20;60.40;14.00;96465.00;;;;4991994;28;20583;-80
2023/10/17 11:28:58;;;;;;;2.00;1.80;;;15.20;60.20;14.00;96463.00;;;;4984992;28;20714;-79
2023/10/17 11:31:27;;;;;;;2.27;2.07;;;15.20;60.50;14.10;96461.00;;;;4992924;28;20224;-79
2023/10/17 11:33:55;;;;;;;2.30;2.20;;;15.20;60.50;14.10;96457.00;;;;4993541;28;20265;-79
2023/10/17 11:36:24;;;;;;;2.60;2.20;;;15.20;61.10;14.10;96461.00;;;;4999034;28;20209;-80
2023/10/17 11:39:03;;;;;;;2.10;2.00;;;15.30;60.20;14.10;96456.00;;;;4980669;28;20222;-80
2023/10/17 11:41:39;;;;;;;2.40;2.20;;;15.30;60.20;14.20;96468.00;;;;4990237;28;20211;-81
2023/10/17 11:44:09;;;;;;;2.03;1.93;;;15.30;60.60;14.20;96460.00;;;;4999403;28;20225;-80
2023/10/17 11:46:37;;;;;;;2.37;2.17;;;15.30;60.60;14.20;96457.00;;;;4991828;28;20281;-79
2023/10/17 11:52:04;;;;;;;2.60;2.40;;;15.40;60.50;14.20;96455.00;;;;4993460;28;20289;-79
2023/10/17 11:54:32;;;;;;;6.93;2.07;;;15.40;60.70;14.30;96459.00;;;;4991482;28;20238;-79
2023/10/17 11:57:12;;;;;;;2.87;2.33;;;15.40;60.50;14.30;96459.00;;;;4995077;28;20202;-79
2023/10/17 11:59:39;;;;;;;2.00;1.90;;;15.50;59.70;14.30;96463.00;;;;5000321;28;20235;-79
2023/10/17 12:02:11;;;;;;;2.67;2.17;;;15.50;60.10;14.40;96459.00;;;;5005211;28;20206;-80
2023/10/17 12:04:38;;;;;;;2.20;2.00;;;15.50;60.20;14.40;96456.00;;;;5000207;28;20198;-80
2023/10/17 12:07:07;;;;;;;2.73;2.40;;;15.50;59.90;14.40;96457.00;;;;4992238;28;20194;-80
2023/10/17 12:09:34;;;;;;;2.20;2.03;;;15.50;59.80;14.40;96464.00;;;;4998840;28;20234;-80
2023/10/17 12:12:02;;;;;;;2.20;2.03;;;15.60;59.90;14.50;96466.00;;;;4998127;28;20293;-80
2023/10/17 12:14:30;;;;;;;2.83;2.50;;;15.60;59.80;14.50;96466.00;;;;4993262;28;20293;-79
2023/10/17 12:16:58;;;;;;;2.37;2.00;;;15.60;59.70;14.50;96466.00;;;;4987610;28;20207;-80
2023/10/17 12:19:27;;;;;;;2.60;2.40;;;15.60;59.90;14.50;96461.00;;;;4992671;28;20230;-79
2023/10/17 12:21:55;;;;;;;2.33;2.13;;;15.60;59.90;14.50;96452.00;;;;4998365;28;20286;-81
2023/10/17 12:24:28;;;;;;;4.00;2.13;;;15.70;59.90;14.50;96456.00;;;;4993219;28;20203;-80
2023/10/17 12:26:56;;;;;;;2.13;1.93;;;15.70;59.70;14.50;96452.00;;;;4998922;28;20272;-79
2023/10/17 12:29:25;;;;;;;2.53;2.27;;;15.70;59.70;14.60;96445.00;;;;4995680;28;20221;-80
2023/10/17 12:31:59;;;;;;;3.07;2.57;;;15.70;59.50;14.60;96449.00;;;;4994944;28;20202;-80
2023/10/17 12:34:27;;;;;;;2.27;2.17;;;15.70;59.20;14.60;96447.00;;;;4996202;28;20253;-80
2023/10/17 12:36:55;;;;;;;2.40;2.17;;;15.70;59.40;14.60;96442.00;;;;5003816;28;20647;-80
2023/10/17 12:39:24;;;;;;;2.43;2.23;;;15.70;59.60;14.60;96438.00;;;;4997534;28;20223;-79
2023/10/17 12:41:51;;;;;;;2.13;2.00;;;15.70;59.50;14.60;96444.00;;;;5000032;28;20237;-79
2023/10/17 12:44:18;;;;;;;3.50;2.50;;;15.80;59.50;14.60;96442.00;;;;5006108;28;20234;-80
2023/10/17 12:46:46;;;;;;;2.27;2.13;;;15.80;59.60;14.60;96450.00;;;;4998659;28;20210;-81
2023/10/17 12:49:14;;;;;;;2.70;2.33;;;15.80;59.30;14.60;96446.00;;;;4999513;28;20245;-79
2023/10/17 12:51:41;;;;;;;2.10;2.00;;;15.80;59.20;14.60;96443.00;;;;4999097;28;20317;-80
2023/10/17 12:54:09;;;;;;;2.30;2.10;;;15.80;59.30;14.70;96447.00;;;;5009654;28;20195;-80
2023/10/17 12:56:39;;;;;;;2.17;2.00;;;15.80;59.40;14.60;96437.00;;;;5003788;28;20205;-80
2023/10/17 12:59:12;;;;;;;1.83;1.73;;;15.80;59.90;14.70;96442.00;;;;4999901;28;20309;-80
2023/10/17 13:01:39;;;;;;;3.10;2.00;;;15.80;60.10;14.70;96439.00;;;;5001971;28;20208;-80